sensor_id;sensor_type;location;lat;lon;timestamp;pressure;altitude;pressure_sealevel;temperature;humidity
59831;BME280;45711;50.108;13.712;2022-10-17T00:56:27;98642.56;;;11.15;92.79
59831;BME280;45711;50.108;13.712;2022-10-17T00:58:56;98645.25;;;11.20;92.54
59831;BME280;45711;50.108;13.712;2022-10-17T01:01:29;98647.91;;;11.15;93.00
59831;BME280;45711;50.108;13.712;2022-10-17T01:04:07;98640.91;;;11.09;93.71
59831;BME280;45711;50.108;13.712;2022-10-17T01:06:58;98647.63;;;11.01;94.53
59831;BME280;45711;50.108;13.712;2022-10-17T01:09:46;98651.34;;;11.00;94.89
59831;BME280;45711;50.108;13.712;2022-10-17T01:16:00;98648.41;;;11.07;95.28
59831;BME280;45711;50.108;13.712;2022-10-17T01:18:55;98645.53;;;11.24;92.66
59831;BME280;45711;50.108;13.712;2022-10-17T01:21:51;98651.63;;;11.09;93.72
59831;BME280;45711;50.108;13.712;2022-10-17T01:24:49;98651.63;;;11.04;94.91
59831;BME280;45711;50.108;13.712;2022-10-17T01:27:51;98653.47;;;10.98;94.70
59831;BME280;45711;50.108;13.712;2022-10-17T01:47:17;98660.69;;;10.93;97.84
59831;BME280;45711;50.108;13.712;2022-10-17T01:50:02;98662.56;;;10.92;97.46
59831;BME280;45711;50.108;13.712;2022-10-17T01:53:40;98666.31;;;10.96;95.96
59831;BME280;45711;50.108;13.712;2022-10-17T01:56:43;98656.34;;;10.81;96.04
59831;BME280;45711;50.108;13.712;2022-10-17T01:59:40;98662.00;;;10.80;96.33
59831;BME280;45711;50.108;13.712;2022-10-17T02:02:56;98658.56;;;10.95;96.81
59831;BME280;45711;50.108;13.712;2022-10-17T02:05:53;98668.44;;;10.84;96.64
59831;BME280;45711;50.108;13.712;2022-10-17T02:08:50;98662.22;;;10.78;97.15
59831;BME280;45711;50.108;13.712;2022-10-17T02:12:44;98656.66;;;10.90;98.76
59831;BME280;45711;50.108;13.712;2022-10-17T02:15:08;98654.75;;;10.80;98.15
59831;BME280;45711;50.108;13.712;2022-10-17T02:18:06;98655.41;;;10.45;98.56
59831;BME280;45711;50.108;13.712;2022-10-17T02:24:03;98650.94;;;10.66;96.87
59831;BME280;45711;50.108;13.712;2022-10-17T02:27:13;98647.13;;;10.52;98.37
59831;BME280;45711;50.108;13.712;2022-10-17T02:36:53;98658.63;;;10.57;96.15
59831;BME280;45711;50.108;13.712;2022-10-17T02:43:29;98673.09;;;10.56;95.25
59831;BME280;45711;50.108;13.712;2022-10-17T02:46:54;98676.56;;;10.52;96.15
59831;BME280;45711;50.108;13.712;2022-10-17T02:49:41;98680.56;;;10.49;97.09
59831;BME280;45711;50.108;13.712;2022-10-17T03:02:21;98674.16;;;10.55;97.70
59831;BME280;45711;50.108;13.712;2022-10-17T03:15:18;98669.28;;;10.42;97.00
59831;BME280;45711;50.108;13.712;2022-10-17T03:17:44;98680.72;;;10.32;98.25
59831;BME280;45711;50.108;13.712;2022-10-17T03:20:12;98669.53;;;10.41;96.79
59831;BME280;45711;50.108;13.712;2022-10-17T03:22:38;98675.13;;;10.39;96.36
59831;BME280;45711;50.108;13.712;2022-10-17T03:25:07;98687.69;;;10.34;97.33
59831;BME280;45711;50.108;13.712;2022-10-17T03:27:35;98680.50;;;10.39;97.42
59831;BME280;45711;50.108;13.712;2022-10-17T03:30:04;98684.81;;;10.45;96.57
59831;BME280;45711;50.108;13.712;2022-10-17T03:32:33;98682.94;;;10.46;97.04
59831;BME280;45711;50.108;13.712;2022-10-17T03:35:05;98686.06;;;10.27;97.29
59831;BME280;45711;50.108;13.712;2022-10-17T03:37:31;98684.19;;;10.28;97.65
59831;BME280;45711;50.108;13.712;2022-10-17T03:39:59;98680.50;;;10.39;99.65
59831;BME280;45711;50.108;13.712;2022-10-17T03:42:26;98674.94;;;10.46;98.91
59831;BME280;45711;50.108;13.712;2022-10-17T03:44:56;98693.34;;;10.37;98.05
59831;BME280;45711;50.108;13.712;2022-10-17T03:47:23;98693.06;;;10.39;98.73
59831;BME280;45711;50.108;13.712;2022-10-17T03:49:52;98695.22;;;10.42;98.49
59831;BME280;45711;50.108;13.712;2022-10-17T03:52:19;98696.72;;;10.70;98.52
59831;BME280;45711;50.108;13.712;2022-10-17T03:54:45;98697.81;;;10.74;97.71
59831;BME280;45711;50.108;13.712;2022-10-17T03:57:15;98700.69;;;10.62;97.97
59831;BME280;45711;50.108;13.712;2022-10-17T03:59:40;98697.22;;;10.62;97.11
59831;BME280;45711;50.108;13.712;2022-10-17T04:02:06;98695.41;;;10.72;98.04
59831;BME280;45711;50.108;13.712;2022-10-17T04:04:32;98690.84;;;10.73;97.92
59831;BME280;45711;50.108;13.712;2022-10-17T04:06:59;98693.81;;;10.76;97.71
59831;BME280;45711;50.108;13.712;2022-10-17T04:09:25;98688.63;;;10.54;98.98
59831;BME280;45711;50.108;13.712;2022-10-17T04:11:50;98694.78;;;10.55;99.47
59831;BME280;45711;50.108;13.712;2022-10-17T04:14:16;98697.50;;;10.65;99.16
59831;BME280;45711;50.108;13.712;2022-10-17T04:16:45;98703.63;;;10.61;99.55
59831;BME280;45711;50.108;13.712;2022-10-17T04:19:11;98701.22;;;10.59;98.96
59831;BME280;45711;50.108;13.712;2022-10-17T04:21:37;98709.31;;;10.69;98.06
59831;BME280;45711;50.108;13.712;2022-10-17T04:24:05;98700.66;;;10.57;99.29
59831;BME280;45711;50.108;13.712;2022-10-17T04:26:31;98700.44;;;10.59;99.90
59831;BME280;45711;50.108;13.712;2022-10-17T04:28:58;98713.22;;;10.51;100.00
59831;BME280;45711;50.108;13.712;2022-10-17T04:31:27;98718.81;;;10.45;100.00
59831;BME280;45711;50.108;13.712;2022-10-17T04:33:56;98727.31;;;10.37;100.00
59831;BME280;45711;50.108;13.712;2022-10-17T04:36:21;98737.75;;;10.38;100.00
59831;BME280;45711;50.108;13.712;2022-10-17T04:38:50;98736.13;;;10.37;100.00
59831;BME280;45711;50.108;13.712;2022-10-17T04:41:18;98743.28;;;10.64;100.00
59831;BME280;45711;50.108;13.712;2022-10-17T04:43:45;98739.22;;;10.61;98.60
59831;BME280;45711;50.108;13.712;2022-10-17T04:46:13;98731.78;;;10.68;99.40
59831;BME280;45711;50.108;13.712;2022-10-17T04:48:52;98747.34;;;10.71;100.00
59831;BME280;45711;50.108;13.712;2022-10-17T04:51:22;98752.16;;;10.74;99.28
59831;BME280;45711;50.108;13.712;2022-10-17T04:53:54;98750.06;;;10.81;99.44
59831;BME280;45711;50.108;13.712;2022-10-17T04:56:28;98751.66;;;10.77;98.73
59831;BME280;45711;50.108;13.712;2022-10-17T04:59:03;98758.63;;;10.83;98.61
59831;BME280;45711;50.108;13.712;2022-10-17T05:02:30;98755.38;;;10.71;98.75
59831;BME280;45711;50.108;13.712;2022-10-17T05:05:03;98755.91;;;10.73;98.98
59831;BME280;45711;50.108;13.712;2022-10-17T05:07:52;98761.31;;;10.83;98.90
59831;BME280;45711;50.108;13.712;2022-10-17T05:10:36;98756.78;;;10.84;98.79
59831;BME280;45711;50.108;13.712;2022-10-17T05:13:25;98757.50;;;10.74;100.00
59831;BME280;45711;50.108;13.712;2022-10-17T05:16:03;98762.91;;;10.79;100.00
59831;BME280;45711;50.108;13.712;2022-10-17T05:18:29;98762.16;;;10.89;99.26
59831;BME280;45711;50.108;13.712;2022-10-17T05:20:55;98769.47;;;11.04;98.72
59831;BME280;45711;50.108;13.712;2022-10-17T05:23:24;98767.59;;;11.04;99.26
59831;BME280;45711;50.108;13.712;2022-10-17T05:25:55;98770.28;;;11.04;99.19
59831;BME280;45711;50.108;13.712;2022-10-17T05:28:22;98772.72;;;11.06;99.46
59831;BME280;45711;50.108;13.712;2022-10-17T05:30:51;98766.75;;;10.94;99.49
59831;BME280;45711;50.108;13.712;2022-10-17T05:33:16;98771.34;;;11.03;100.00
59831;BME280;45711;50.108;13.712;2022-10-17T05:35:44;98767.88;;;11.08;100.00
59831;BME280;45711;50.108;13.712;2022-10-17T05:38:13;98778.59;;;11.08;100.00
59831;BME280;45711;50.108;13.712;2022-10-17T05:40:45;98783.94;;;11.08;100.00
59831;BME280;45711;50.108;13.712;2022-10-17T05:43:19;98779.09;;;11.05;100.00
59831;BME280;45711;50.108;13.712;2022-10-17T05:46:21;98782.69;;;11.21;100.00
59831;BME280;45711;50.108;13.712;2022-10-17T05:49:17;98780.19;;;11.04;100.00
59831;BME280;45711;50.108;13.712;2022-10-17T05:51:49;98787.94;;;11.05;100.00
59831;BME280;45711;50.108;13.712;2022-10-17T05:55:15;98788.50;;;11.07;100.00
59831;BME280;45711;50.108;13.712;2022-10-17T06:01:13;98795.22;;;11.10;100.00
59831;BME280;45711;50.108;13.712;2022-10-17T06:03:49;98799.03;;;11.19;100.00
59831;BME280;45711;50.108;13.712;2022-10-17T06:06:35;98800.66;;;11.25;100.00
59831;BME280;45711;50.108;13.712;2022-10-17T06:09:35;98807.91;;;11.30;100.00
59831;BME280;45711;50.108;13.712;2022-10-17T06:15:26;98813.50;;;11.23;100.00
59831;BME280;45711;50.108;13.712;2022-10-17T06:18:11;98818.09;;;11.33;100.00
59831;BME280;45711;50.108;13.712;2022-10-17T06:24:50;98822.38;;;11.29;100.00
59831;BME280;45711;50.108;13.712;2022-10-17T06:28:57;98826.38;;;11.31;100.00
59831;BME280;45711;50.108;13.712;2022-10-17T06:30:41;98827.75;;;11.34;100.00
59831;BME280;45711;50.108;13.712;2022-10-17T06:34:25;98827.25;;;11.42;100.00
59831;BME280;45711;50.108;13.712;2022-10-17T06:39:22;98836.13;;;11.48;100.00
59831;BME280;45711;50.108;13.712;2022-10-17T06:42:08;98846.91;;;11.58;100.00
59831;BME280;45711;50.108;13.712;2022-10-17T06:44:37;98850.94;;;11.71;100.00
59831;BME280;45711;50.108;13.712;2022-10-17T06:47:14;98855.50;;;11.70;100.00
59831;BME280;45711;50.108;13.712;2022-10-17T06:49:40;98863.34;;;11.82;100.00
59831;BME280;45711;50.108;13.712;2022-10-17T06:52:06;98857.78;;;11.89;100.00
59831;BME280;45711;50.108;13.712;2022-10-17T06:56:58;98849.72;;;11.89;100.00
59831;BME280;45711;50.108;13.712;2022-10-17T06:59:25;98856.69;;;11.85;100.00
59831;BME280;45711;50.108;13.712;2022-10-17T07:01:51;98852.13;;;11.95;100.00
59831;BME280;45711;50.108;13.712;2022-10-17T07:04:16;98852.16;;;12.00;100.00
59831;BME280;45711;50.108;13.712;2022-10-17T07:06:42;98854.31;;;11.98;100.00
59831;BME280;45711;50.108;13.712;2022-10-17T07:09:08;98870.13;;;11.95;100.00
59831;BME280;45711;50.108;13.712;2022-10-17T07:11:34;98865.06;;;12.19;98.74
59831;BME280;45711;50.108;13.712;2022-10-17T07:14:00;98863.50;;;12.38;96.82
59831;BME280;45711;50.108;13.712;2022-10-17T07:16:30;98872.59;;;12.17;97.99
59831;BME280;45711;50.108;13.712;2022-10-17T07:18:58;98867.50;;;12.15;99.06
59831;BME280;45711;50.108;13.712;2022-10-17T07:21:23;98872.88;;;12.20;99.38
59831;BME280;45711;50.108;13.712;2022-10-17T07:23:49;98880.34;;;12.03;100.00
59831;BME280;45711;50.108;13.712;2022-10-17T07:26:16;98883.31;;;12.06;100.00
59831;BME280;45711;50.108;13.712;2022-10-17T07:32:14;98871.53;;;12.28;99.96
59831;BME280;45711;50.108;13.712;2022-10-17T07:34:39;98871.31;;;12.55;96.93
59831;BME280;45711;50.108;13.712;2022-10-17T07:37:05;98871.84;;;12.67;95.65
59831;BME280;45711;50.108;13.712;2022-10-17T07:39:39;98868.09;;;12.63;97.70
59831;BME280;45711;50.108;13.712;2022-10-17T07:42:05;98871.81;;;12.57;97.83
59831;BME280;45711;50.108;13.712;2022-10-17T07:44:35;98869.16;;;12.67;96.27
59831;BME280;45711;50.108;13.712;2022-10-17T07:47:01;98872.38;;;12.69;98.32
59831;BME280;45711;50.108;13.712;2022-10-17T07:49:30;98874.25;;;12.69;97.97
59831;BME280;45711;50.108;13.712;2022-10-17T07:51:56;98871.31;;;12.60;98.69
59831;BME280;45711;50.108;13.712;2022-10-17T07:54:24;98872.09;;;12.50;99.99
59831;BME280;45711;50.108;13.712;2022-10-17T07:56:52;98871.31;;;12.55;99.07
59831;BME280;45711;50.108;13.712;2022-10-17T07:59:20;98869.44;;;12.50;98.12
59831;BME280;45711;50.108;13.712;2022-10-17T08:01:45;98867.81;;;12.54;98.43
59831;BME280;45711;50.108;13.712;2022-10-17T08:04:11;98872.09;;;12.50;99.18
59831;BME280;45711;50.108;13.712;2022-10-17T08:06:38;98865.66;;;12.51;99.39
59831;BME280;45711;50.108;13.712;2022-10-17T08:09:04;98876.41;;;12.46;99.86
59831;BME280;45711;50.108;13.712;2022-10-17T08:11:30;98871.81;;;12.57;100.00
59831;BME280;45711;50.108;13.712;2022-10-17T08:13:56;98875.59;;;12.66;98.11
59831;BME280;45711;50.108;13.712;2022-10-17T08:16:30;98875.88;;;12.80;98.79
59831;BME280;45711;50.108;13.712;2022-10-17T08:19:13;98867.00;;;12.69;100.00
59831;BME280;45711;50.108;13.712;2022-10-17T08:21:40;98878.00;;;12.78;98.94
59831;BME280;45711;50.108;13.712;2022-10-17T08:24:08;98875.31;;;12.78;99.00
59831;BME280;45711;50.108;13.712;2022-10-17T08:26:41;98881.78;;;12.77;99.08
59831;BME280;45711;50.108;13.712;2022-10-17T08:29:11;98885.00;;;12.74;99.36
59831;BME280;45711;50.108;13.712;2022-10-17T08:31:43;98889.56;;;12.73;99.53
59831;BME280;45711;50.108;13.712;2022-10-17T08:34:09;98883.13;;;12.64;100.00
59831;BME280;45711;50.108;13.712;2022-10-17T08:36:39;98892.81;;;12.80;100.00
59831;BME280;45711;50.108;13.712;2022-10-17T08:39:12;98886.34;;;12.92;100.00
59831;BME280;45711;50.108;13.712;2022-10-17T08:41:58;98887.66;;;13.09;99.36
59831;BME280;45711;50.108;13.712;2022-10-17T08:44:38;98882.56;;;13.28;91.92
59831;BME280;45711;50.108;13.712;2022-10-17T08:47:20;98881.44;;;13.50;92.64
59831;BME280;45711;50.108;13.712;2022-10-17T08:49:57;98877.13;;;13.44;92.17
59831;BME280;45711;50.108;13.712;2022-10-17T08:52:34;98887.94;;;13.33;94.13
59831;BME280;45711;50.108;13.712;2022-10-17T08:55:13;98880.38;;;13.46;95.25
59831;BME280;45711;50.108;13.712;2022-10-17T08:57:49;98880.13;;;13.37;96.42
59831;BME280;45711;50.108;13.712;2022-10-17T09:00:20;98874.72;;;13.47;93.74
59831;BME280;45711;50.108;13.712;2022-10-17T09:02:58;98877.94;;;13.44;90.89
59831;BME280;45711;50.108;13.712;2022-10-17T09:05:35;98888.47;;;13.10;97.30
59831;BME280;45711;50.108;13.712;2022-10-17T09:08:15;98879.59;;;13.09;97.56
59831;BME280;45711;50.108;13.712;2022-10-17T09:10:59;98885.50;;;13.27;96.47
59831;BME280;45711;50.108;13.712;2022-10-17T09:13:43;98880.66;;;13.39;94.79
59831;BME280;45711;50.108;13.712;2022-10-17T09:19:16;98887.09;;;13.38;91.95
59831;BME280;45711;50.108;13.712;2022-10-17T09:24:58;98878.22;;;13.43;95.81
59831;BME280;45711;50.108;13.712;2022-10-17T09:27:33;98889.50;;;13.50;92.53
59831;BME280;45711;50.108;13.712;2022-10-17T09:30:14;98880.63;;;13.44;94.86
59831;BME280;45711;50.108;13.712;2022-10-17T10:31:23;98886.13;;;14.38;86.98
59831;BME280;45711;50.108;13.712;2022-10-17T10:34:47;98873.34;;;14.59;91.67
59831;BME280;45711;50.108;13.712;2022-10-17T10:39:58;98867.22;;;14.48;85.68
59831;BME280;45711;50.108;13.712;2022-10-17T10:44:11;98868.19;;;14.63;88.63
59831;BME280;45711;50.108;13.712;2022-10-17T10:50:20;98846.63;;;14.68;83.75
59831;BME280;45711;50.108;13.712;2022-10-17T10:56:41;98851.94;;;14.39;82.11
59831;BME280;45711;50.108;13.712;2022-10-17T11:03:28;98855.13;;;14.41;81.85
59831;BME280;45711;50.108;13.712;2022-10-17T11:20:09;98844.34;;;14.41;81.85
59831;BME280;45711;50.108;13.712;2022-10-17T11:23:31;98846.53;;;14.78;83.38
59831;BME280;45711;50.108;13.712;2022-10-17T11:26:20;98848.19;;;14.74;83.73
59831;BME280;45711;50.108;13.712;2022-10-17T11:28:54;98842.94;;;14.53;81.29
59831;BME280;45711;50.108;13.712;2022-10-17T11:31:31;98854.72;;;14.68;83.27
59831;BME280;45711;50.108;13.712;2022-10-17T11:34:35;98856.25;;;14.74;81.32
59831;BME280;45711;50.108;13.712;2022-10-17T11:37:17;98855.97;;;14.75;82.30
59831;BME280;45711;50.108;13.712;2022-10-17T11:39:48;98848.72;;;14.76;80.26
59831;BME280;45711;50.108;13.712;2022-10-17T11:42:50;98838.13;;;14.45;81.14
59831;BME280;45711;50.108;13.712;2022-10-17T11:58:47;98847.03;;;14.51;81.09
59831;BME280;45711;50.108;13.712;2022-10-17T12:02:11;98843.38;;;14.66;81.59
59831;BME280;45711;50.108;13.712;2022-10-17T12:09:14;98836.81;;;14.43;81.80
59831;BME280;45711;50.108;13.712;2022-10-17T12:12:07;98830.34;;;14.44;81.66
59831;BME280;45711;50.108;13.712;2022-10-17T12:17:42;98834.34;;;14.51;81.29
59831;BME280;45711;50.108;13.712;2022-10-17T12:20:30;98838.00;;;14.66;82.48
59831;BME280;45711;50.108;13.712;2022-10-17T12:23:24;98829.72;;;14.57;80.89
59831;BME280;45711;50.108;13.712;2022-10-17T12:26:05;98826.19;;;14.62;81.51
59831;BME280;45711;50.108;13.712;2022-10-17T12:29:15;98825.03;;;14.73;85.57
59831;BME280;45711;50.108;13.712;2022-10-17T12:35:37;98819.94;;;14.66;81.36
59831;BME280;45711;50.108;13.712;2022-10-17T12:41:22;98816.13;;;14.72;82.12
59831;BME280;45711;50.108;13.712;2022-10-17T12:44:34;98813.69;;;14.76;83.34
59831;BME280;45711;50.108;13.712;2022-10-17T12:47:34;98811.78;;;14.76;84.21
59831;BME280;45711;50.108;13.712;2022-10-17T12:53:00;98804.31;;;14.68;83.16
59831;BME280;45711;50.108;13.712;2022-10-17T12:55:38;98805.22;;;14.58;83.99
59831;BME280;45711;50.108;13.712;2022-10-17T12:58:25;98800.03;;;14.62;82.47
59831;BME280;45711;50.108;13.712;2022-10-17T13:00:57;98800.53;;;14.69;83.13
59831;BME280;45711;50.108;13.712;2022-10-17T13:03:40;98801.13;;;14.61;81.41
59831;BME280;45711;50.108;13.712;2022-10-17T13:06:38;98802.13;;;14.70;81.41
59831;BME280;45711;50.108;13.712;2022-10-17T14:04:06;98794.72;;;14.86;83.74
59831;BME280;45711;50.108;13.712;2022-10-17T14:06:48;98802.19;;;14.65;83.81
59831;BME280;45711;50.108;13.712;2022-10-17T14:09:20;98809.91;;;14.77;88.62
59831;BME280;45711;50.108;13.712;2022-10-17T14:11:57;98807.16;;;14.82;85.14
59831;BME280;45711;50.108;13.712;2022-10-17T14:14:25;98809.50;;;14.89;86.11
59831;BME280;45711;50.108;13.712;2022-10-17T14:16:59;98819.53;;;14.83;83.07
59831;BME280;45711;50.108;13.712;2022-10-17T14:19:31;98809.56;;;14.83;85.63
59831;BME280;45711;50.108;13.712;2022-10-17T14:22:24;98815.53;;;14.80;84.39
59831;BME280;45711;50.108;13.712;2022-10-17T14:24:53;98809.03;;;14.81;84.74
59831;BME280;45711;50.108;13.712;2022-10-17T14:29:01;98819.28;;;14.79;82.54
59831;BME280;45711;50.108;13.712;2022-10-17T14:31:28;98820.38;;;14.78;88.03
59831;BME280;45711;50.108;13.712;2022-10-17T14:33:55;98824.34;;;14.86;90.39
59831;BME280;45711;50.108;13.712;2022-10-17T14:36:33;98823.94;;;14.74;83.47
59831;BME280;45711;50.108;13.712;2022-10-17T14:39:04;98817.75;;;15.02;87.11
59831;BME280;45711;50.108;13.712;2022-10-17T14:41:33;98825.72;;;14.83;81.63
59831;BME280;45711;50.108;13.712;2022-10-17T14:44:06;98831.34;;;14.87;87.63
59831;BME280;45711;50.108;13.712;2022-10-17T14:46:36;98829.47;;;14.88;85.41
59831;BME280;45711;50.108;13.712;2022-10-17T14:49:16;98836.41;;;14.94;90.20
59831;BME280;45711;50.108;13.712;2022-10-17T14:55:16;98826.09;;;15.01;82.15
59831;BME280;45711;50.108;13.712;2022-10-17T14:57:47;98824.16;;;15.06;90.83
59831;BME280;45711;50.108;13.712;2022-10-17T15:00:16;98828.00;;;15.00;85.84
59831;BME280;45711;50.108;13.712;2022-10-17T15:02:51;98825.78;;;15.07;90.20
59831;BME280;45711;50.108;13.712;2022-10-17T15:05:24;98829.09;;;14.99;82.37
59831;BME280;45711;50.108;13.712;2022-10-17T15:07:52;98834.97;;;15.01;81.95
59831;BME280;45711;50.108;13.712;2022-10-17T15:12:53;98833.50;;;14.90;81.82
59831;BME280;45711;50.108;13.712;2022-10-17T15:13:57;98836.78;;;14.82;82.34
59831;BME280;45711;50.108;13.712;2022-10-17T15:16:44;98833.38;;;15.00;82.09
59831;BME280;45711;50.108;13.712;2022-10-17T15:19:14;98841.16;;;15.07;86.82
59831;BME280;45711;50.108;13.712;2022-10-17T15:21:41;98837.97;;;15.00;82.20
59831;BME280;45711;50.108;13.712;2022-10-17T15:24:09;98834.78;;;14.98;82.14
59831;BME280;45711;50.108;13.712;2022-10-17T15:26:38;98836.13;;;14.95;82.19
59831;BME280;45711;50.108;13.712;2022-10-17T15:29:13;98837.97;;;15.00;82.18
59831;BME280;45711;50.108;13.712;2022-10-17T15:31:43;98836.38;;;14.99;85.39
59831;BME280;45711;50.108;13.712;2022-10-17T15:34:48;98831.47;;;15.01;87.18
59831;BME280;45711;50.108;13.712;2022-10-17T15:37:25;98843.31;;;15.05;84.36
59831;BME280;45711;50.108;13.712;2022-10-17T15:43:48;98836.03;;;15.05;80.44
59831;BME280;45711;50.108;13.712;2022-10-17T15:46:49;98842.50;;;15.04;85.61
59831;BME280;45711;50.108;13.712;2022-10-17T15:49:31;98845.56;;;14.98;83.75
59831;BME280;45711;50.108;13.712;2022-10-17T15:56:59;98845.38;;;14.89;89.49
59831;BME280;45711;50.108;13.712;2022-10-17T16:01:59;98850.28;;;15.11;86.00
59831;BME280;45711;50.108;13.712;2022-10-17T16:04:53;98860.38;;;14.95;83.75
59831;BME280;45711;50.108;13.712;2022-10-17T16:08:55;98862.53;;;14.98;81.93
59831;BME280;45711;50.108;13.712;2022-10-17T16:15:22;98858.63;;;14.80;90.57
59831;BME280;45711;50.108;13.712;2022-10-17T16:17:12;98863.59;;;14.68;88.43
59831;BME280;45711;50.108;13.712;2022-10-17T16:19:44;98863.59;;;14.68;90.01
59831;BME280;45711;50.108;13.712;2022-10-17T16:22:33;98860.91;;;14.68;84.92
59831;BME280;45711;50.108;13.712;2022-10-17T16:25:20;98871.47;;;14.94;83.53
59831;BME280;45711;50.108;13.712;2022-10-17T16:28:21;98880.34;;;14.94;83.57
59831;BME280;45711;50.108;13.712;2022-10-17T16:41:31;98886.16;;;14.33;93.18
59831;BME280;45711;50.108;13.712;2022-10-17T16:50:41;98895.34;;;14.27;95.30
59831;BME280;45711;50.108;13.712;2022-10-17T16:53:37;98888.59;;;14.29;94.38
59831;BME280;45711;50.108;13.712;2022-10-17T16:56:23;98884.31;;;14.23;95.22
59831;BME280;45711;50.108;13.712;2022-10-17T17:02:40;98900.56;;;14.08;97.12
59831;BME280;45711;50.108;13.712;2022-10-17T17:08:11;98898.47;;;13.95;97.20
59831;BME280;45711;50.108;13.712;2022-10-17T17:11:10;98900.13;;;13.86;98.17
59831;BME280;45711;50.108;13.712;2022-10-17T17:14:29;98907.13;;;13.87;99.11
59831;BME280;45711;50.108;13.712;2022-10-17T17:17:18;98899.06;;;13.81;98.50
59831;BME280;45711;50.108;13.712;2022-10-17T17:31:07;98882.16;;;13.76;97.48
59831;BME280;45711;50.108;13.712;2022-10-17T17:34:18;98900.16;;;13.75;98.26
59831;BME280;45711;50.108;13.712;2022-10-17T17:37:30;98889.75;;;13.58;99.62
59831;BME280;45711;50.108;13.712;2022-10-17T17:39:59;98885.72;;;13.56;99.62
59831;BME280;45711;50.108;13.712;2022-10-17T17:42:42;98889.97;;;13.72;99.45
59831;BME280;45711;50.108;13.712;2022-10-17T17:45:39;98889.44;;;13.65;99.29
59831;BME280;45711;50.108;13.712;2022-10-17T17:48:30;98897.00;;;13.63;99.71
59831;BME280;45711;50.108;13.712;2022-10-17T17:51:35;98894.28;;;13.68;99.93
59831;BME280;45711;50.108;13.712;2022-10-17T17:54:18;98887.88;;;13.59;100.00
59831;BME280;45711;50.108;13.712;2022-10-17T17:56:49;98890.03;;;13.52;100.00
59831;BME280;45711;50.108;13.712;2022-10-17T18:00:14;98892.19;;;13.50;100.00
59831;BME280;45711;50.108;13.712;2022-10-17T18:03:02;98892.44;;;13.53;100.00
